sensor_id;sensor_type;location;lat;lon;timestamp;temperature;humidity
32753;DHT22;19121;52.428;10.816;2023-04-15T00:02:20;19.40;43.00
32753;DHT22;19121;52.428;10.816;2023-04-15T00:04:46;19.40;43.00
32753;DHT22;19121;52.428;10.816;2023-04-15T00:07:11;19.40;43.00
32753;DHT22;19121;52.428;10.816;2023-04-15T00:09:37;19.40;43.00
32753;DHT22;19121;52.428;10.816;2023-04-15T00:12:03;19.40;43.00
32753;DHT22;19121;52.428;10.816;2023-04-15T00:14:28;19.40;43.00
32753;DHT22;19121;52.428;10.816;2023-04-15T00:16:55;19.40;43.00
32753;DHT22;19121;52.428;10.816;2023-04-15T00:19:21;19.40;43.10
32753;DHT22;19121;52.428;10.816;2023-04-15T00:21:47;19.40;43.00
32753;DHT22;19121;52.428;10.816;2023-04-15T00:24:12;19.40;43.10
32753;DHT22;19121;52.428;10.816;2023-04-15T00:26:38;19.40;43.10
32753;DHT22;19121;52.428;10.816;2023-04-15T00:29:03;19.40;43.10
32753;DHT22;19121;52.428;10.816;2023-04-15T00:31:29;19.40;43.10
32753;DHT22;19121;52.428;10.816;2023-04-15T00:33:55;19.40;43.10
32753;DHT22;19121;52.428;10.816;2023-04-15T00:36:21;19.40;43.10
32753;DHT22;19121;52.428;10.816;2023-04-15T00:38:47;19.40;43.10
32753;DHT22;19121;52.428;10.816;2023-04-15T00:41:13;19.40;43.10
32753;DHT22;19121;52.428;10.816;2023-04-15T00:43:38;19.40;43.10
32753;DHT22;19121;52.428;10.816;2023-04-15T00:46:04;19.30;43.10
32753;DHT22;19121;52.428;10.816;2023-04-15T00:48:30;19.40;43.10
32753;DHT22;19121;52.428;10.816;2023-04-15T00:50:56;19.30;43.10
32753;DHT22;19121;52.428;10.816;2023-04-15T00:53:22;19.30;43.10
32753;DHT22;19121;52.428;10.816;2023-04-15T00:55:47;19.30;43.10
32753;DHT22;19121;52.428;10.816;2023-04-15T00:58:13;19.30;43.10
32753;DHT22;19121;52.428;10.816;2023-04-15T01:00:39;19.30;43.10
32753;DHT22;19121;52.428;10.816;2023-04-15T01:03:05;19.30;43.10
32753;DHT22;19121;52.428;10.816;2023-04-15T01:05:31;19.30;43.10
32753;DHT22;19121;52.428;10.816;2023-04-15T01:07:56;19.30;43.10
32753;DHT22;19121;52.428;10.816;2023-04-15T01:10:22;19.30;43.10
32753;DHT22;19121;52.428;10.816;2023-04-15T01:12:47;19.30;43.10
32753;DHT22;19121;52.428;10.816;2023-04-15T01:15:13;19.30;43.10
32753;DHT22;19121;52.428;10.816;2023-04-15T01:17:40;19.30;43.10
32753;DHT22;19121;52.428;10.816;2023-04-15T01:20:06;19.30;43.10
32753;DHT22;19121;52.428;10.816;2023-04-15T01:22:34;19.30;43.10
32753;DHT22;19121;52.428;10.816;2023-04-15T01:25:05;19.30;43.10
32753;DHT22;19121;52.428;10.816;2023-04-15T01:27:32;19.20;43.10
32753;DHT22;19121;52.428;10.816;2023-04-15T01:29:59;19.20;43.10
32753;DHT22;19121;52.428;10.816;2023-04-15T01:32:24;19.30;43.10
32753;DHT22;19121;52.428;10.816;2023-04-15T01:34:50;19.30;43.10
32753;DHT22;19121;52.428;10.816;2023-04-15T01:37:16;19.30;43.10
32753;DHT22;19121;52.428;10.816;2023-04-15T01:39:41;19.20;43.10
32753;DHT22;19121;52.428;10.816;2023-04-15T01:42:07;19.20;43.10
32753;DHT22;19121;52.428;10.816;2023-04-15T01:44:32;19.20;43.10
32753;DHT22;19121;52.428;10.816;2023-04-15T01:46:58;19.20;43.10
32753;DHT22;19121;52.428;10.816;2023-04-15T01:49:23;19.20;43.20
32753;DHT22;19121;52.428;10.816;2023-04-15T01:51:48;19.20;43.10
32753;DHT22;19121;52.428;10.816;2023-04-15T01:54:14;19.20;43.10
32753;DHT22;19121;52.428;10.816;2023-04-15T01:56:39;19.20;43.10
32753;DHT22;19121;52.428;10.816;2023-04-15T01:59:05;19.20;43.10
32753;DHT22;19121;52.428;10.816;2023-04-15T02:01:30;19.20;43.10
32753;DHT22;19121;52.428;10.816;2023-04-15T02:03:56;19.20;43.10
32753;DHT22;19121;52.428;10.816;2023-04-15T02:06:21;19.20;43.20
32753;DHT22;19121;52.428;10.816;2023-04-15T02:08:47;19.20;43.20
32753;DHT22;19121;52.428;10.816;2023-04-15T02:11:12;19.20;43.20
32753;DHT22;19121;52.428;10.816;2023-04-15T02:13:38;19.20;43.20
32753;DHT22;19121;52.428;10.816;2023-04-15T02:16:03;19.20;43.20
32753;DHT22;19121;52.428;10.816;2023-04-15T02:18:29;19.20;43.20
32753;DHT22;19121;52.428;10.816;2023-04-15T02:20:54;19.20;43.20
32753;DHT22;19121;52.428;10.816;2023-04-15T02:23:22;19.20;43.20
32753;DHT22;19121;52.428;10.816;2023-04-15T02:25:48;19.20;43.20
32753;DHT22;19121;52.428;10.816;2023-04-15T02:28:13;19.20;43.20
32753;DHT22;19121;52.428;10.816;2023-04-15T02:30:38;19.20;43.20
32753;DHT22;19121;52.428;10.816;2023-04-15T02:33:05;19.20;43.20
32753;DHT22;19121;52.428;10.816;2023-04-15T02:35:31;19.20;43.20
32753;DHT22;19121;52.428;10.816;2023-04-15T02:37:57;19.10;43.10
32753;DHT22;19121;52.428;10.816;2023-04-15T02:40:22;19.10;43.10
32753;DHT22;19121;52.428;10.816;2023-04-15T02:42:48;19.10;43.20
32753;DHT22;19121;52.428;10.816;2023-04-15T02:45:13;19.10;43.20
32753;DHT22;19121;52.428;10.816;2023-04-15T02:47:38;19.10;43.20
32753;DHT22;19121;52.428;10.816;2023-04-15T02:50:06;19.10;43.20
32753;DHT22;19121;52.428;10.816;2023-04-15T02:52:33;19.10;43.20
32753;DHT22;19121;52.428;10.816;2023-04-15T02:54:58;19.10;43.20
32753;DHT22;19121;52.428;10.816;2023-04-15T02:57:25;19.10;43.20
32753;DHT22;19121;52.428;10.816;2023-04-15T02:59:51;19.10;43.20
32753;DHT22;19121;52.428;10.816;2023-04-15T03:02:16;19.10;43.20
32753;DHT22;19121;52.428;10.816;2023-04-15T03:04:42;19.10;43.20
32753;DHT22;19121;52.428;10.816;2023-04-15T03:07:07;19.10;43.20
32753;DHT22;19121;52.428;10.816;2023-04-15T03:09:33;19.10;43.20
32753;DHT22;19121;52.428;10.816;2023-04-15T03:11:59;19.10;43.30
32753;DHT22;19121;52.428;10.816;2023-04-15T03:14:24;19.10;43.20
32753;DHT22;19121;52.428;10.816;2023-04-15T03:16:50;19.10;43.20
32753;DHT22;19121;52.428;10.816;2023-04-15T03:19:16;19.10;43.30
32753;DHT22;19121;52.428;10.816;2023-04-15T03:21:41;19.10;43.30
32753;DHT22;19121;52.428;10.816;2023-04-15T03:24:07;19.10;43.30
32753;DHT22;19121;52.428;10.816;2023-04-15T03:26:32;19.10;43.30
32753;DHT22;19121;52.428;10.816;2023-04-15T03:28:57;19.10;43.30
32753;DHT22;19121;52.428;10.816;2023-04-15T03:31:23;19.10;43.30
32753;DHT22;19121;52.428;10.816;2023-04-15T03:33:48;19.10;43.30
32753;DHT22;19121;52.428;10.816;2023-04-15T03:36:14;19.10;43.30
32753;DHT22;19121;52.428;10.816;2023-04-15T03:38:40;19.10;43.30
32753;DHT22;19121;52.428;10.816;2023-04-15T03:41:05;19.00;43.30
32753;DHT22;19121;52.428;10.816;2023-04-15T03:43:31;19.00;43.30
32753;DHT22;19121;52.428;10.816;2023-04-15T03:45:57;19.00;43.30
32753;DHT22;19121;52.428;10.816;2023-04-15T03:48:22;19.00;43.30
32753;DHT22;19121;52.428;10.816;2023-04-15T03:50:48;19.00;43.30
32753;DHT22;19121;52.428;10.816;2023-04-15T03:53:13;19.00;43.30
32753;DHT22;19121;52.428;10.816;2023-04-15T03:55:39;19.00;43.40
32753;DHT22;19121;52.428;10.816;2023-04-15T03:58:04;19.00;43.40
32753;DHT22;19121;52.428;10.816;2023-04-15T04:00:30;19.00;43.40
32753;DHT22;19121;52.428;10.816;2023-04-15T04:02:55;19.00;43.40
32753;DHT22;19121;52.428;10.816;2023-04-15T04:05:21;19.00;43.40
32753;DHT22;19121;52.428;10.816;2023-04-15T04:07:46;19.00;43.40
32753;DHT22;19121;52.428;10.816;2023-04-15T04:10:12;19.00;43.40
32753;DHT22;19121;52.428;10.816;2023-04-15T04:12:37;19.00;43.40
32753;DHT22;19121;52.428;10.816;2023-04-15T04:15:03;19.00;43.40
32753;DHT22;19121;52.428;10.816;2023-04-15T04:17:28;19.00;43.40
32753;DHT22;19121;52.428;10.816;2023-04-15T04:19:54;19.00;43.40
32753;DHT22;19121;52.428;10.816;2023-04-15T04:22:22;19.00;43.40
32753;DHT22;19121;52.428;10.816;2023-04-15T04:24:48;19.00;43.40
32753;DHT22;19121;52.428;10.816;2023-04-15T04:27:14;19.00;43.40
32753;DHT22;19121;52.428;10.816;2023-04-15T04:29:39;19.00;43.50
32753;DHT22;19121;52.428;10.816;2023-04-15T04:32:05;19.00;43.40
32753;DHT22;19121;52.428;10.816;2023-04-15T04:34:30;19.00;43.40
32753;DHT22;19121;52.428;10.816;2023-04-15T04:36:56;19.00;43.40
32753;DHT22;19121;52.428;10.816;2023-04-15T04:39:22;19.00;43.40
32753;DHT22;19121;52.428;10.816;2023-04-15T04:41:48;19.00;43.50
32753;DHT22;19121;52.428;10.816;2023-04-15T04:44:13;19.00;43.50
32753;DHT22;19121;52.428;10.816;2023-04-15T04:46:39;18.90;43.40
32753;DHT22;19121;52.428;10.816;2023-04-15T04:49:04;18.90;43.40
32753;DHT22;19121;52.428;10.816;2023-04-15T04:51:30;18.90;43.40
32753;DHT22;19121;52.428;10.816;2023-04-15T04:53:55;18.90;43.40
32753;DHT22;19121;52.428;10.816;2023-04-15T04:56:21;18.90;43.40
32753;DHT22;19121;52.428;10.816;2023-04-15T04:58:46;18.90;43.40
32753;DHT22;19121;52.428;10.816;2023-04-15T05:01:12;19.00;43.50
32753;DHT22;19121;52.428;10.816;2023-04-15T05:03:37;18.90;43.50
32753;DHT22;19121;52.428;10.816;2023-04-15T05:06:03;18.90;43.50
32753;DHT22;19121;52.428;10.816;2023-04-15T05:08:30;18.90;43.50
32753;DHT22;19121;52.428;10.816;2023-04-15T05:10:56;18.90;43.50
32753;DHT22;19121;52.428;10.816;2023-04-15T05:13:21;18.90;43.50
32753;DHT22;19121;52.428;10.816;2023-04-15T05:15:47;19.00;43.50
32753;DHT22;19121;52.428;10.816;2023-04-15T05:18:12;18.90;43.50
32753;DHT22;19121;52.428;10.816;2023-04-15T05:20:37;19.00;43.50
32753;DHT22;19121;52.428;10.816;2023-04-15T05:23:03;19.00;43.40
32753;DHT22;19121;52.428;10.816;2023-04-15T05:25:28;19.00;43.40
32753;DHT22;19121;52.428;10.816;2023-04-15T05:27:54;19.00;43.40
32753;DHT22;19121;52.428;10.816;2023-04-15T05:30:19;19.00;43.40
32753;DHT22;19121;52.428;10.816;2023-04-15T05:32:45;19.10;43.40
32753;DHT22;19121;52.428;10.816;2023-04-15T05:35:11;19.00;43.30
32753;DHT22;19121;52.428;10.816;2023-04-15T05:37:36;19.10;43.40
32753;DHT22;19121;52.428;10.816;2023-04-15T05:40:02;19.10;43.40
32753;DHT22;19121;52.428;10.816;2023-04-15T05:42:28;19.10;43.40
32753;DHT22;19121;52.428;10.816;2023-04-15T05:44:54;19.10;43.40
32753;DHT22;19121;52.428;10.816;2023-04-15T05:47:19;19.10;43.40
32753;DHT22;19121;52.428;10.816;2023-04-15T05:49:45;19.10;43.40
32753;DHT22;19121;52.428;10.816;2023-04-15T05:52:10;19.10;43.40
32753;DHT22;19121;52.428;10.816;2023-04-15T05:54:36;19.10;43.30
32753;DHT22;19121;52.428;10.816;2023-04-15T05:57:01;19.10;43.40
32753;DHT22;19121;52.428;10.816;2023-04-15T05:59:27;19.10;43.30
32753;DHT22;19121;52.428;10.816;2023-04-15T06:01:52;19.10;43.30
32753;DHT22;19121;52.428;10.816;2023-04-15T06:04:18;19.10;43.30
32753;DHT22;19121;52.428;10.816;2023-04-15T06:06:43;19.10;43.30
32753;DHT22;19121;52.428;10.816;2023-04-15T06:09:09;19.10;43.30
32753;DHT22;19121;52.428;10.816;2023-04-15T06:11:35;19.10;43.30
32753;DHT22;19121;52.428;10.816;2023-04-15T06:14:00;19.10;43.30
32753;DHT22;19121;52.428;10.816;2023-04-15T06:16:26;19.10;43.30
32753;DHT22;19121;52.428;10.816;2023-04-15T06:18:51;19.00;43.30
32753;DHT22;19121;52.428;10.816;2023-04-15T06:21:17;19.10;43.40
32753;DHT22;19121;52.428;10.816;2023-04-15T06:23:42;19.00;43.30
32753;DHT22;19121;52.428;10.816;2023-04-15T06:26:08;19.00;43.30
32753;DHT22;19121;52.428;10.816;2023-04-15T06:28:33;19.00;43.40
32753;DHT22;19121;52.428;10.816;2023-04-15T06:30:59;19.00;43.40
32753;DHT22;19121;52.428;10.816;2023-04-15T06:33:25;19.00;43.40
32753;DHT22;19121;52.428;10.816;2023-04-15T06:35:51;19.00;43.40
32753;DHT22;19121;52.428;10.816;2023-04-15T06:38:16;19.00;43.40
32753;DHT22;19121;52.428;10.816;2023-04-15T06:40:42;19.00;43.40
32753;DHT22;19121;52.428;10.816;2023-04-15T06:43:07;19.00;43.40
32753;DHT22;19121;52.428;10.816;2023-04-15T06:45:33;19.00;43.40
32753;DHT22;19121;52.428;10.816;2023-04-15T06:47:59;19.00;43.40
32753;DHT22;19121;52.428;10.816;2023-04-15T06:50:24;19.00;43.40
32753;DHT22;19121;52.428;10.816;2023-04-15T06:52:50;19.00;43.40
32753;DHT22;19121;52.428;10.816;2023-04-15T06:55:15;19.00;43.50
32753;DHT22;19121;52.428;10.816;2023-04-15T06:57:40;19.00;43.40
32753;DHT22;19121;52.428;10.816;2023-04-15T07:00:06;19.00;43.40
32753;DHT22;19121;52.428;10.816;2023-04-15T07:02:32;19.00;43.50
32753;DHT22;19121;52.428;10.816;2023-04-15T07:04:57;19.00;43.40
32753;DHT22;19121;52.428;10.816;2023-04-15T07:07:23;19.00;43.40
32753;DHT22;19121;52.428;10.816;2023-04-15T07:09:48;19.00;43.40
32753;DHT22;19121;52.428;10.816;2023-04-15T07:12:13;19.00;43.40
32753;DHT22;19121;52.428;10.816;2023-04-15T07:14:39;19.00;43.40
32753;DHT22;19121;52.428;10.816;2023-04-15T07:17:04;19.10;43.50
32753;DHT22;19121;52.428;10.816;2023-04-15T07:19:30;19.10;43.50
32753;DHT22;19121;52.428;10.816;2023-04-15T07:21:56;19.00;43.40
32753;DHT22;19121;52.428;10.816;2023-04-15T07:24:21;19.10;43.50
32753;DHT22;19121;52.428;10.816;2023-04-15T07:26:51;19.00;43.40
32753;DHT22;19121;52.428;10.816;2023-04-15T07:29:17;19.00;43.40
32753;DHT22;19121;52.428;10.816;2023-04-15T07:31:42;19.00;43.50
32753;DHT22;19121;52.428;10.816;2023-04-15T07:34:07;19.10;43.50
32753;DHT22;19121;52.428;10.816;2023-04-15T07:36:33;19.00;43.40
32753;DHT22;19121;52.428;10.816;2023-04-15T07:38:59;19.00;43.50
32753;DHT22;19121;52.428;10.816;2023-04-15T07:41:27;19.00;43.40
32753;DHT22;19121;52.428;10.816;2023-04-15T07:43:53;19.10;43.50
32753;DHT22;19121;52.428;10.816;2023-04-15T07:46:19;19.10;43.50
32753;DHT22;19121;52.428;10.816;2023-04-15T07:48:44;19.00;43.50
32753;DHT22;19121;52.428;10.816;2023-04-15T07:51:10;19.10;43.50
32753;DHT22;19121;52.428;10.816;2023-04-15T07:53:37;19.00;43.50
32753;DHT22;19121;52.428;10.816;2023-04-15T07:56:02;19.00;43.50
32753;DHT22;19121;52.428;10.816;2023-04-15T07:58:28;19.00;43.50
32753;DHT22;19121;52.428;10.816;2023-04-15T08:00:53;19.00;43.50
32753;DHT22;19121;52.428;10.816;2023-04-15T08:03:22;19.00;43.50
32753;DHT22;19121;52.428;10.816;2023-04-15T08:05:47;19.00;43.50
32753;DHT22;19121;52.428;10.816;2023-04-15T08:08:13;19.00;43.50
32753;DHT22;19121;52.428;10.816;2023-04-15T08:10:38;19.00;43.50
32753;DHT22;19121;52.428;10.816;2023-04-15T08:13:04;19.00;43.50
32753;DHT22;19121;52.428;10.816;2023-04-15T08:15:30;19.00;43.50
32753;DHT22;19121;52.428;10.816;2023-04-15T08:17:57;19.10;43.60
32753;DHT22;19121;52.428;10.816;2023-04-15T08:20:24;19.10;43.60
32753;DHT22;19121;52.428;10.816;2023-04-15T08:22:50;19.10;43.60
32753;DHT22;19121;52.428;10.816;2023-04-15T08:25:16;19.10;43.60
32753;DHT22;19121;52.428;10.816;2023-04-15T08:27:41;19.00;43.60
32753;DHT22;19121;52.428;10.816;2023-04-15T08:30:07;19.10;43.70
32753;DHT22;19121;52.428;10.816;2023-04-15T08:32:32;19.00;43.60
32753;DHT22;19121;52.428;10.816;2023-04-15T08:34:58;19.00;43.60
32753;DHT22;19121;52.428;10.816;2023-04-15T08:37:23;19.00;43.60
32753;DHT22;19121;52.428;10.816;2023-04-15T08:39:49;19.10;43.70
32753;DHT22;19121;52.428;10.816;2023-04-15T08:42:18;19.10;43.70
32753;DHT22;19121;52.428;10.816;2023-04-15T08:44:47;19.10;43.70
32753;DHT22;19121;52.428;10.816;2023-04-15T08:47:13;19.10;43.70
32753;DHT22;19121;52.428;10.816;2023-04-15T08:49:41;19.10;43.70
32753;DHT22;19121;52.428;10.816;2023-04-15T08:52:07;19.10;43.70
32753;DHT22;19121;52.428;10.816;2023-04-15T08:54:34;19.10;43.70
32753;DHT22;19121;52.428;10.816;2023-04-15T08:56:59;19.10;43.70
32753;DHT22;19121;52.428;10.816;2023-04-15T08:59:26;19.10;43.70
32753;DHT22;19121;52.428;10.816;2023-04-15T09:01:52;19.10;43.70
32753;DHT22;19121;52.428;10.816;2023-04-15T09:04:19;19.10;43.70
32753;DHT22;19121;52.428;10.816;2023-04-15T09:06:45;19.10;43.70
32753;DHT22;19121;52.428;10.816;2023-04-15T09:09:11;19.10;43.70
32753;DHT22;19121;52.428;10.816;2023-04-15T09:11:37;19.10;43.70
32753;DHT22;19121;52.428;10.816;2023-04-15T09:14:02;19.10;43.70
32753;DHT22;19121;52.428;10.816;2023-04-15T09:16:28;19.10;43.70
32753;DHT22;19121;52.428;10.816;2023-04-15T09:18:54;19.10;43.70
32753;DHT22;19121;52.428;10.816;2023-04-15T09:21:19;19.10;43.70
32753;DHT22;19121;52.428;10.816;2023-04-15T09:23:57;19.10;43.70
32753;DHT22;19121;52.428;10.816;2023-04-15T09:26:30;19.10;43.70
32753;DHT22;19121;52.428;10.816;2023-04-15T09:29:08;19.10;43.80
32753;DHT22;19121;52.428;10.816;2023-04-15T09:31:34;19.10;43.70
32753;DHT22;19121;52.428;10.816;2023-04-15T09:34:01;19.10;43.70
32753;DHT22;19121;52.428;10.816;2023-04-15T09:36:27;19.10;43.70
32753;DHT22;19121;52.428;10.816;2023-04-15T09:38:56;19.10;43.80
32753;DHT22;19121;52.428;10.816;2023-04-15T09:41:22;19.10;43.80
32753;DHT22;19121;52.428;10.816;2023-04-15T09:43:47;19.10;43.70
32753;DHT22;19121;52.428;10.816;2023-04-15T09:46:13;19.10;43.80
32753;DHT22;19121;52.428;10.816;2023-04-15T09:48:38;19.10;43.70
32753;DHT22;19121;52.428;10.816;2023-04-15T09:51:03;19.10;43.70
32753;DHT22;19121;52.428;10.816;2023-04-15T09:53:29;19.10;43.80
32753;DHT22;19121;52.428;10.816;2023-04-15T09:55:57;19.10;43.80
32753;DHT22;19121;52.428;10.816;2023-04-15T09:58:25;19.10;43.70
32753;DHT22;19121;52.428;10.816;2023-04-15T10:00:51;19.20;43.80
32753;DHT22;19121;52.428;10.816;2023-04-15T10:03:20;19.20;43.80
32753;DHT22;19121;52.428;10.816;2023-04-15T10:05:49;19.10;43.80
32753;DHT22;19121;52.428;10.816;2023-04-15T10:08:16;19.20;43.90
32753;DHT22;19121;52.428;10.816;2023-04-15T10:10:43;19.10;43.80
32753;DHT22;19121;52.428;10.816;2023-04-15T10:13:09;19.20;43.90
32753;DHT22;19121;52.428;10.816;2023-04-15T10:15:35;19.10;43.90
32753;DHT22;19121;52.428;10.816;2023-04-15T10:18:01;19.20;44.00
32753;DHT22;19121;52.428;10.816;2023-04-15T10:20:27;19.20;43.90
32753;DHT22;19121;52.428;10.816;2023-04-15T10:22:53;19.20;43.90
32753;DHT22;19121;52.428;10.816;2023-04-15T10:25:19;19.20;43.90
32753;DHT22;19121;52.428;10.816;2023-04-15T10:27:44;19.20;44.00
32753;DHT22;19121;52.428;10.816;2023-04-15T10:30:12;19.20;44.00
32753;DHT22;19121;52.428;10.816;2023-04-15T10:32:38;19.20;44.00
32753;DHT22;19121;52.428;10.816;2023-04-15T10:35:04;19.20;44.00
32753;DHT22;19121;52.428;10.816;2023-04-15T10:37:34;19.20;44.00
32753;DHT22;19121;52.428;10.816;2023-04-15T10:40:00;19.20;44.00
32753;DHT22;19121;52.428;10.816;2023-04-15T10:42:32;19.20;44.00
32753;DHT22;19121;52.428;10.816;2023-04-15T10:44:58;19.20;44.00
32753;DHT22;19121;52.428;10.816;2023-04-15T10:47:24;19.20;44.00
32753;DHT22;19121;52.428;10.816;2023-04-15T10:49:50;19.20;44.00
32753;DHT22;19121;52.428;10.816;2023-04-15T10:52:17;19.20;44.00
32753;DHT22;19121;52.428;10.816;2023-04-15T10:54:43;19.20;44.10
32753;DHT22;19121;52.428;10.816;2023-04-15T10:57:13;19.30;44.10
32753;DHT22;19121;52.428;10.816;2023-04-15T11:02:39;19.20;44.10
32753;DHT22;19121;52.428;10.816;2023-04-15T11:05:05;19.20;44.10
32753;DHT22;19121;52.428;10.816;2023-04-15T11:07:38;19.30;44.10
32753;DHT22;19121;52.428;10.816;2023-04-15T11:12:41;19.30;44.10
32753;DHT22;19121;52.428;10.816;2023-04-15T11:17:52;19.20;44.10
32753;DHT22;19121;52.428;10.816;2023-04-15T11:20:18;19.20;44.00
32753;DHT22;19121;52.428;10.816;2023-04-15T11:22:50;19.30;44.10
32753;DHT22;19121;52.428;10.816;2023-04-15T11:27:47;19.20;44.10
32753;DHT22;19121;52.428;10.816;2023-04-15T11:30:24;19.20;44.10
32753;DHT22;19121;52.428;10.816;2023-04-15T11:32:50;19.30;44.10
32753;DHT22;19121;52.428;10.816;2023-04-15T11:35:16;19.20;44.10
32753;DHT22;19121;52.428;10.816;2023-04-15T11:37:43;19.20;44.10
32753;DHT22;19121;52.428;10.816;2023-04-15T11:40:08;19.30;44.10
32753;DHT22;19121;52.428;10.816;2023-04-15T11:42:34;19.20;44.10
32753;DHT22;19121;52.428;10.816;2023-04-15T11:45:33;19.30;44.10
32753;DHT22;19121;52.428;10.816;2023-04-15T11:47:51;19.30;44.10
32753;DHT22;19121;52.428;10.816;2023-04-15T11:52:55;19.20;44.10
32753;DHT22;19121;52.428;10.816;2023-04-15T11:55:21;19.30;44.10
32753;DHT22;19121;52.428;10.816;2023-04-15T11:57:49;19.30;44.10
32753;DHT22;19121;52.428;10.816;2023-04-15T12:00:15;19.30;44.10
32753;DHT22;19121;52.428;10.816;2023-04-15T12:02:42;19.30;44.10
32753;DHT22;19121;52.428;10.816;2023-04-15T12:05:07;19.30;44.10
32753;DHT22;19121;52.428;10.816;2023-04-15T12:07:56;19.30;44.10
32753;DHT22;19121;52.428;10.816;2023-04-15T12:10:18;19.30;44.10
32753;DHT22;19121;52.428;10.816;2023-04-15T12:12:47;19.30;44.10
32753;DHT22;19121;52.428;10.816;2023-04-15T12:15:13;19.30;44.10
32753;DHT22;19121;52.428;10.816;2023-04-15T12:17:39;19.30;44.10
32753;DHT22;19121;52.428;10.816;2023-04-15T12:20:04;19.30;44.10
32753;DHT22;19121;52.428;10.816;2023-04-15T12:22:30;19.30;44.10
32753;DHT22;19121;52.428;10.816;2023-04-15T12:25:01;19.30;44.10
32753;DHT22;19121;52.428;10.816;2023-04-15T12:27:27;19.30;44.10
32753;DHT22;19121;52.428;10.816;2023-04-15T12:29:58;19.30;44.10
32753;DHT22;19121;52.428;10.816;2023-04-15T12:32:27;19.30;44.10
32753;DHT22;19121;52.428;10.816;2023-04-15T12:34:53;19.40;44.20
32753;DHT22;19121;52.428;10.816;2023-04-15T12:37:18;19.40;44.20
32753;DHT22;19121;52.428;10.816;2023-04-15T12:39:45;19.40;44.20
32753;DHT22;19121;52.428;10.816;2023-04-15T12:42:11;19.40;44.20
32753;DHT22;19121;52.428;10.816;2023-04-15T12:44:37;19.40;44.20
32753;DHT22;19121;52.428;10.816;2023-04-15T12:47:02;19.40;44.20
32753;DHT22;19121;52.428;10.816;2023-04-15T12:49:30;19.40;44.20
32753;DHT22;19121;52.428;10.816;2023-04-15T12:51:57;19.40;44.10
32753;DHT22;19121;52.428;10.816;2023-04-15T12:54:24;19.40;44.10
32753;DHT22;19121;52.428;10.816;2023-04-15T12:56:49;19.40;44.10
32753;DHT22;19121;52.428;10.816;2023-04-15T12:59:15;19.40;44.10
32753;DHT22;19121;52.428;10.816;2023-04-15T13:01:43;19.40;44.10
32753;DHT22;19121;52.428;10.816;2023-04-15T13:04:08;19.40;44.10
32753;DHT22;19121;52.428;10.816;2023-04-15T13:06:34;19.40;44.10
32753;DHT22;19121;52.428;10.816;2023-04-15T13:08:59;19.40;44.10
32753;DHT22;19121;52.428;10.816;2023-04-15T13:11:26;19.40;44.10
32753;DHT22;19121;52.428;10.816;2023-04-15T13:13:51;19.40;44.10
32753;DHT22;19121;52.428;10.816;2023-04-15T13:16:17;19.40;44.10
32753;DHT22;19121;52.428;10.816;2023-04-15T13:18:42;19.40;44.20
32753;DHT22;19121;52.428;10.816;2023-04-15T13:21:09;19.50;44.20
32753;DHT22;19121;52.428;10.816;2023-04-15T13:23:35;19.50;44.20
32753;DHT22;19121;52.428;10.816;2023-04-15T13:26:01;19.50;44.20
32753;DHT22;19121;52.428;10.816;2023-04-15T13:28:26;19.50;44.20
32753;DHT22;19121;52.428;10.816;2023-04-15T13:30:52;19.50;44.20
32753;DHT22;19121;52.428;10.816;2023-04-15T13:33:17;19.50;44.20
32753;DHT22;19121;52.428;10.816;2023-04-15T13:35:42;19.40;44.10
32753;DHT22;19121;52.428;10.816;2023-04-15T13:38:08;19.50;44.20
32753;DHT22;19121;52.428;10.816;2023-04-15T13:40:33;19.50;44.10
32753;DHT22;19121;52.428;10.816;2023-04-15T13:42:59;19.50;44.10
32753;DHT22;19121;52.428;10.816;2023-04-15T13:45:25;19.50;44.10
32753;DHT22;19121;52.428;10.816;2023-04-15T13:47:50;19.50;44.10
32753;DHT22;19121;52.428;10.816;2023-04-15T13:50:16;19.50;44.10
32753;DHT22;19121;52.428;10.816;2023-04-15T13:52:41;19.50;44.00
32753;DHT22;19121;52.428;10.816;2023-04-15T13:55:07;19.50;44.10
32753;DHT22;19121;52.428;10.816;2023-04-15T13:57:32;19.50;44.00
32753;DHT22;19121;52.428;10.816;2023-04-15T13:59:58;19.50;44.00
32753;DHT22;19121;52.428;10.816;2023-04-15T14:02:23;19.50;44.10
32753;DHT22;19121;52.428;10.816;2023-04-15T14:04:49;19.50;44.00
32753;DHT22;19121;52.428;10.816;2023-04-15T14:07:14;19.50;44.00
32753;DHT22;19121;52.428;10.816;2023-04-15T14:09:40;19.50;44.10
32753;DHT22;19121;52.428;10.816;2023-04-15T14:12:05;19.50;44.00
32753;DHT22;19121;52.428;10.816;2023-04-15T14:14:31;19.50;44.00
32753;DHT22;19121;52.428;10.816;2023-04-15T14:16:56;19.50;44.10
32753;DHT22;19121;52.428;10.816;2023-04-15T14:19:23;19.50;44.10
32753;DHT22;19121;52.428;10.816;2023-04-15T14:21:48;19.50;44.10
32753;DHT22;19121;52.428;10.816;2023-04-15T14:24:13;19.50;44.10
32753;DHT22;19121;52.428;10.816;2023-04-15T14:26:39;19.50;44.00
32753;DHT22;19121;52.428;10.816;2023-04-15T14:29:04;19.50;44.10
32753;DHT22;19121;52.428;10.816;2023-04-15T14:31:30;19.50;44.10
32753;DHT22;19121;52.428;10.816;2023-04-15T14:33:55;19.50;44.10
32753;DHT22;19121;52.428;10.816;2023-04-15T14:36:20;19.50;44.10
32753;DHT22;19121;52.428;10.816;2023-04-15T14:38:46;19.50;44.10
32753;DHT22;19121;52.428;10.816;2023-04-15T14:41:11;19.50;44.10
32753;DHT22;19121;52.428;10.816;2023-04-15T14:43:37;19.50;44.10
32753;DHT22;19121;52.428;10.816;2023-04-15T14:46:02;19.50;44.10
32753;DHT22;19121;52.428;10.816;2023-04-15T14:48:28;19.50;44.10
32753;DHT22;19121;52.428;10.816;2023-04-15T14:50:55;19.50;44.10
32753;DHT22;19121;52.428;10.816;2023-04-15T14:53:20;19.50;44.10
32753;DHT22;19121;52.428;10.816;2023-04-15T14:55:45;19.50;44.10
32753;DHT22;19121;52.428;10.816;2023-04-15T14:58:11;19.50;44.10
32753;DHT22;19121;52.428;10.816;2023-04-15T15:00:37;19.50;44.20
32753;DHT22;19121;52.428;10.816;2023-04-15T15:03:04;19.50;44.10
32753;DHT22;19121;52.428;10.816;2023-04-15T15:05:40;19.50;44.10
32753;DHT22;19121;52.428;10.816;2023-04-15T15:08:06;19.50;44.10
32753;DHT22;19121;52.428;10.816;2023-04-15T15:10:32;19.50;44.10
32753;DHT22;19121;52.428;10.816;2023-04-15T15:12:58;19.50;44.20
32753;DHT22;19121;52.428;10.816;2023-04-15T15:15:23;19.50;44.20
32753;DHT22;19121;52.428;10.816;2023-04-15T15:17:49;19.50;44.20
32753;DHT22;19121;52.428;10.816;2023-04-15T15:20:14;19.50;44.20
32753;DHT22;19121;52.428;10.816;2023-04-15T15:22:40;19.50;44.20